Time;durP1;ratioP1;P1;durP2;ratioP2;P2;SDS_P1;SDS_P2;PMS_P1;PMS_P2;Temp;Humidity;BMP_temperature;BMP_pressure;BME280_temperature;BME280_humidity;BME280_pressure;Samples;Min_cycle;Max_cycle;Signal;HPM_P1;HPM_P2
2023/06/24 00:00:30;;;;;;;15.57;14.07;;;;;;;24.00;100.00;101205.88;2064763;28;20261;-62
2023/06/24 00:01:31;;;;;;;15.77;14.07;;;;;;;24.01;100.00;101207.41;2064673;28;20186;-63
2023/06/24 00:02:31;;;;;;;14.60;12.93;;;;;;;23.95;100.00;101201.72;2063725;28;21030;-62
2023/06/24 00:03:37;;;;;;;14.70;12.00;;;;;;;23.77;100.00;101192.88;2064434;28;20194;-62
2023/06/24 00:04:38;;;;;;;13.73;12.33;;;;;;;23.78;100.00;101212.19;2064405;28;20245;-62
2023/06/24 00:05:38;;;;;;;15.63;13.40;;;;;;;23.81;100.00;101207.56;2061554;28;20191;-62
2023/06/24 00:06:39;;;;;;;15.00;13.47;;;;;;;23.76;100.00;101208.31;2058398;28;20680;-62
2023/06/24 00:07:45;;;;;;;18.07;12.87;;;;;;;23.74;100.00;101208.81;2064458;28;20262;-62
2023/06/24 00:08:47;;;;;;;16.40;13.20;;;;;;;23.14;100.00;101118.03;2064612;28;20202;-62
2023/06/24 00:09:47;;;;;;;13.63;12.33;;;;;;;23.74;100.00;101202.41;2064564;28;20174;-62
2023/06/24 00:10:48;;;;;;;14.80;12.77;;;;;;;23.75;100.00;101204.72;2064484;28;20190;-62
2023/06/24 00:11:49;;;;;;;14.57;13.10;;;;;;;23.75;100.00;101204.72;2064535;28;20597;-62
2023/06/24 00:12:49;;;;;;;15.77;12.77;;;;;;;23.77;100.00;101201.38;2064213;28;20217;-62
2023/06/24 00:13:50;;;;;;;14.37;12.87;;;;;;;23.76;100.00;101194.19;2064062;28;20178;-63
2023/06/24 00:14:50;;;;;;;14.30;12.77;;;;;;;23.16;100.00;101098.50;2064367;28;20629;-62
2023/06/24 00:15:50;;;;;;;14.77;12.87;;;;;;;23.68;100.00;101185.41;2063947;28;20170;-62
2023/06/24 00:16:52;;;;;;;14.77;13.00;;;;;;;23.76;100.00;101189.31;2064108;28;20175;-62
2023/06/24 00:17:53;;;;;;;15.50;13.97;;;;;;;23.74;100.00;101191.84;2064585;28;20648;-62
2023/06/24 00:18:58;;;;;;;19.93;14.60;;;;;;;23.73;100.00;101187.47;2064413;28;20608;-62
2023/06/24 00:19:58;;;;;;;15.50;13.83;;;;;;;23.74;100.00;101193.94;2064435;28;20190;-62
2023/06/24 00:20:58;;;;;;;14.50;13.13;;;;;;;23.71;100.00;101192.09;2064345;28;20242;-62
2023/06/24 00:22:03;;;;;;;15.33;13.73;;;;;;;23.03;100.00;101095.38;2064421;28;20190;-62
2023/06/24 00:23:04;;;;;;;15.43;13.93;;;;;;;23.58;100.00;101203.09;2064109;28;20525;-62
2023/06/24 00:24:04;;;;;;;16.30;14.80;;;;;;;22.95;100.00;101117.69;2063859;28;20195;-62
2023/06/24 00:25:05;;;;;;;15.47;13.87;;;;;;;23.36;100.00;101177.56;2064204;28;20186;-62
2023/06/24 00:26:05;;;;;;;16.10;13.57;;;;;;;23.52;100.00;101214.41;2064407;28;20249;-62
2023/06/24 00:27:06;;;;;;;15.57;13.70;;;;;;;23.45;100.00;101208.47;2064609;28;20189;-62
2023/06/24 00:28:07;;;;;;;17.73;14.67;;;;;;;23.37;100.00;101198.91;2064540;28;20198;-62
2023/06/24 00:29:08;;;;;;;16.90;15.20;;;;;;;23.44;100.00;101199.19;2064422;28;20186;-62
2023/06/24 00:30:09;;;;;;;15.50;14.10;;;;;;;23.46;100.00;101202.31;2063987;28;20663;-62
2023/06/24 00:31:11;;;;;;;17.20;15.53;;;;;;;23.49;100.00;101200.50;2058838;28;20190;-62
2023/06/24 00:32:11;;;;;;;18.93;16.97;;;;;;;23.49;100.00;101200.50;2058886;28;20227;-62
2023/06/24 00:33:13;;;;;;;18.03;16.27;;;;;;;23.48;100.00;101199.72;2064286;28;20178;-61
2023/06/24 00:34:14;;;;;;;17.93;15.47;;;;;;;23.50;100.00;101199.22;2063934;28;20265;-63
2023/06/24 00:35:15;;;;;;;16.40;14.67;;;;;;;23.51;100.00;101203.59;2064491;28;20201;-62
2023/06/24 00:36:15;;;;;;;16.27;14.10;;;;;;;23.51;100.00;101198.72;2064573;28;20293;-62
2023/06/24 00:37:16;;;;;;;17.30;14.20;;;;;;;23.53;100.00;101204.63;2064449;28;20237;-62
2023/06/24 00:38:16;;;;;;;17.10;13.70;;;;;;;23.52;100.00;101202.31;2064343;28;20308;-63
2023/06/24 00:39:16;;;;;;;15.87;14.27;;;;;;;23.54;100.00;101211.06;2064143;28;20545;-63
2023/06/24 00:40:17;;;;;;;15.53;14.03;;;;;;;23.55;100.00;101204.13;2064325;28;20217;-62
2023/06/24 00:41:19;;;;;;;16.10;13.83;;;;;;;23.55;100.00;101204.88;2064305;28;20178;-62
2023/06/24 00:42:19;;;;;;;17.07;14.50;;;;;;;23.56;100.00;101211.34;2064215;28;20247;-62
2023/06/24 00:43:20;;;;;;;16.20;14.40;;;;;;;23.57;100.00;101205.16;2064289;28;20310;-62
2023/06/24 00:44:20;;;;;;;15.17;13.57;;;;;;;23.57;100.00;101208.00;2056334;28;20274;-62
2023/06/24 00:45:22;;;;;;;17.13;14.60;;;;;;;23.57;100.00;101213.66;2062518;28;20561;-63
2023/06/24 00:46:25;;;;;;;15.03;13.53;;;;;;;23.59;100.00;101210.31;2064093;28;20252;-64
2023/06/24 00:47:26;;;;;;;14.90;13.40;;;;;;;23.59;100.00;101213.91;2064322;28;20175;-62
2023/06/24 00:48:26;;;;;;;15.50;13.10;;;;;;;23.55;100.00;101204.88;2064475;28;20189;-62
2023/06/24 00:49:27;;;;;;;14.73;11.83;;;;;;;23.58;100.00;101206.72;2064510;28;20633;-62
2023/06/24 00:50:27;;;;;;;14.90;11.57;;;;;;;23.55;100.00;101204.13;2064411;28;20201;-62
2023/06/24 00:51:30;;;;;;;14.47;11.70;;;;;;;23.30;100.00;101163.41;2064465;28;20265;-62
2023/06/24 00:52:30;;;;;;;14.70;12.53;;;;;;;23.55;100.00;101204.13;2064099;28;20661;-62
2023/06/24 00:53:30;;;;;;;15.50;12.93;;;;;;;23.54;100.00;101203.34;2064246;28;20544;-62
2023/06/24 00:54:31;;;;;;;14.97;13.40;;;;;;;23.53;100.00;101207.47;2064096;28;20221;-62
2023/06/24 00:55:31;;;;;;;16.33;13.77;;;;;;;23.53;100.00;101204.63;2064857;28;20188;-62
2023/06/24 00:56:38;;;;;;;20.53;13.70;;;;;;;23.53;100.00;101210.28;2065280;28;20190;-62
2023/06/24 00:57:50;;;;;;;16.10;12.93;;;;;;;22.68;100.00;101087.22;2065503;28;20186;-62
2023/06/24 00:58:52;;;;;;;16.13;14.10;;;;;;;23.48;100.00;101201.78;2065965;28;20196;-62
2023/06/24 00:59:56;;;;;;;15.77;12.70;;;;;;;23.52;100.00;101214.41;2065769;28;20178;-62
2023/06/24 01:00:57;;;;;;;15.10;12.93;;;;;;;23.50;100.00;101221.84;2065712;28;20213;-62
2023/06/24 01:02:01;;;;;;;17.03;13.03;;;;;;;23.48;100.00;101221.56;2065909;28;20178;-62
2023/06/24 01:03:03;;;;;;;15.13;13.53;;;;;;;23.47;100.00;101220.81;2065741;28;20184;-61
2023/06/24 01:04:03;;;;;;;15.43;13.53;;;;;;;23.47;100.00;101226.47;2065576;28;20188;-62
2023/06/24 01:05:07;;;;;;;15.83;12.63;;;;;;;23.47;100.00;101223.66;2065745;28;20198;-62
2023/06/24 01:06:09;;;;;;;18.07;13.47;;;;;;;22.93;100.00;101147.75;2066050;28;20277;-62
2023/06/24 01:07:10;;;;;;;17.53;13.73;;;;;;;23.42;100.00;101224.38;2065751;28;20189;-62
2023/06/24 01:08:15;;;;;;;17.90;14.13;;;;;;;23.42;100.00;101229.25;2065937;28;20654;-62
2023/06/24 01:09:15;;;;;;;17.33;13.87;;;;;;;23.38;100.00;101220.25;2065665;28;20253;-62
2023/06/24 01:10:16;;;;;;;17.40;13.33;;;;;;;23.42;100.00;101230.03;2065683;28;20209;-62
2023/06/24 01:11:17;;;;;;;15.20;12.90;;;;;;;23.42;100.00;101227.22;2065132;28;20186;-62
2023/06/24 01:12:17;;;;;;;14.93;13.43;;;;;;;23.41;100.00;101233.38;2065398;28;20178;-62
2023/06/24 01:13:18;;;;;;;19.67;14.63;;;;;;;23.32;100.00;101214.56;2065902;28;20178;-63
2023/06/24 01:14:20;;;;;;;17.83;14.30;;;;;;;22.84;100.00;101148.72;2065294;28;20186;-62
2023/06/24 01:15:21;;;;;;;15.17;13.53;;;;;;;23.01;100.00;101177.06;2065693;28;20244;-62
2023/06/24 01:16:42;;;;;;;17.00;13.63;;;;;;;23.36;100.00;101228.47;2065717;28;20281;-62
2023/06/24 01:17:47;;;;;;;15.33;13.73;;;;;;;23.34;100.00;101234.63;2065843;28;20181;-62
2023/06/24 01:18:56;;;;;;;17.57;13.97;;;;;;;22.33;100.00;101085.94;2071755;28;20185;-62
2023/06/24 01:20:10;;;;;;;15.37;13.43;;;;;;;23.26;100.00;101235.59;2072246;28;20248;-62
2023/06/24 01:21:26;;;;;;;17.17;13.43;;;;;;;23.06;100.00;101232.88;2072906;28;20272;-62
2023/06/24 01:23:13;;;;;;;19.57;14.97;;;;;;;22.94;100.00;101251.03;2071105;28;20196;-61
2023/06/24 01:24:31;;;;;;;16.53;14.27;;;;;;;22.15;100.00;101145.59;2056135;28;20322;-62
2023/06/24 01:25:57;;;;;;;21.80;14.27;;;;;;;22.74;100.00;101257.56;2055961;28;20333;-62
2023/06/24 01:27:28;;;;;;;16.33;14.63;;;;;;;22.75;100.00;101249.84;2056420;28;20213;-62
2023/06/24 01:28:59;;;;;;;17.03;15.20;;;;;;;22.77;100.00;101256.56;2056544;28;20203;-62
2023/06/24 01:30:23;;;;;;;17.77;14.87;;;;;;;22.72;100.00;101257.28;2063198;28;20618;-62
2023/06/24 01:31:46;;;;;;;19.27;16.80;;;;;;;22.74;100.00;101259.63;2065381;28;20264;-62
2023/06/24 01:32:56;;;;;;;16.60;15.00;;;;;;;22.72;100.00;101259.34;2065674;28;20637;-62
2023/06/24 01:34:06;;;;;;;18.63;16.57;;;;;;;22.67;100.00;101252.34;2065339;28;20198;-62
2023/06/24 01:35:15;;;;;;;22.23;17.43;;;;;;;22.76;100.00;101259.88;2065556;28;20190;-62
2023/06/24 01:36:18;;;;;;;21.73;17.30;;;;;;;22.77;100.00;101255.78;2065608;28;20278;-62
2023/06/24 01:37:25;;;;;;;19.33;17.37;;;;;;;22.81;100.00;101267.63;2065514;28;20204;-62
2023/06/24 01:38:35;;;;;;;18.07;16.13;;;;;;;22.81;100.00;101262.75;2065629;28;20210;-62
2023/06/24 01:39:42;;;;;;;18.10;15.97;;;;;;;22.83;100.00;101268.66;2064943;28;20198;-62
2023/06/24 01:40:46;;;;;;;16.90;15.30;;;;;;;22.85;100.00;101268.97;2065405;28;20186;-62
2023/06/24 01:42:06;;;;;;;16.10;14.47;;;;;;;22.85;100.00;101268.19;2065632;28;20225;-62
2023/06/24 01:43:09;;;;;;;17.33;14.50;;;;;;;22.87;100.00;101274.13;2065212;28;20197;-62
2023/06/24 01:44:13;;;;;;;17.97;15.17;;;;;;;22.89;100.00;101268.72;2064999;28;20267;-62
2023/06/24 01:45:24;;;;;;;20.83;16.10;;;;;;;22.89;100.00;101268.72;2065318;28;20217;-62
2023/06/24 01:46:25;;;;;;;19.13;17.07;;;;;;;22.90;100.00;101271.06;2065488;28;20261;-62
2023/06/24 01:47:27;;;;;;;19.53;17.33;;;;;;;22.89;100.00;101269.53;2065416;28;20264;-62
2023/06/24 01:48:32;;;;;;;16.90;15.20;;;;;;;22.82;100.00;101269.94;2065597;28;20636;-62
2023/06/24 01:49:36;;;;;;;15.97;14.30;;;;;;;22.14;100.00;101164.56;2065316;28;20198;-62
2023/06/24 01:50:39;;;;;;;20.30;15.67;;;;;;;22.84;100.00;101261.78;2065359;28;20187;-62
2023/06/24 01:51:43;;;;;;;16.63;14.87;;;;;;;22.84;100.00;101272.28;2065414;28;20565;-62
2023/06/24 01:52:45;;;;;;;17.47;14.23;;;;;;;22.86;100.00;101267.69;2064415;28;20174;-62
2023/06/24 01:53:52;;;;;;;15.97;14.37;;;;;;;22.30;100.00;101186.53;2056766;28;20670;-63
2023/06/24 01:54:55;;;;;;;16.00;13.77;;;;;;;22.88;100.00;101267.94;2057531;28;20208;-62
2023/06/24 01:55:58;;;;;;;15.70;14.20;;;;;;;22.89;100.00;101274.38;2064683;28;20652;-61
2023/06/24 01:57:01;;;;;;;16.50;14.90;;;;;;;22.63;100.00;101229.19;2065206;28;20178;-62
2023/06/24 01:58:05;;;;;;;16.27;14.57;;;;;;;22.74;100.00;101248.31;2065422;28;20299;-62
2023/06/24 01:59:08;;;;;;;19.37;15.93;;;;;;;22.04;100.00;101148.28;2065434;28;20198;-62
2023/06/24 02:00:09;;;;;;;17.73;15.83;;;;;;;22.94;100.00;101279.31;2065458;28;20252;-62
2023/06/24 02:01:12;;;;;;;16.40;14.30;;;;;;;22.95;100.00;101295.75;2065221;28;20186;-62
2023/06/24 02:02:13;;;;;;;17.70;14.60;;;;;;;22.97;100.00;101276.25;2065089;28;20185;-62
2023/06/24 02:03:15;;;;;;;19.67;13.93;;;;;;;22.98;100.00;101285.50;2065270;28;20181;-62
2023/06/24 02:04:17;;;;;;;17.70;13.70;;;;;;;23.01;100.00;101276.00;2064792;28;20179;-62
2023/06/24 02:05:20;;;;;;;15.70;13.97;;;;;;;23.01;100.00;101284.50;2065408;28;20182;-62
2023/06/24 02:06:22;;;;;;;17.80;14.63;;;;;;;23.02;100.00;101281.16;2057031;28;20198;-62
2023/06/24 02:07:25;;;;;;;19.03;14.70;;;;;;;23.01;100.00;101285.28;2064068;28;20198;-62
2023/06/24 02:08:30;;;;;;;18.10;15.90;;;;;;;23.01;100.00;101290.16;2065579;28;20183;-62
2023/06/24 02:09:32;;;;;;;17.23;15.53;;;;;;;23.03;100.00;101294.03;2065381;28;20202;-62
2023/06/24 02:10:33;;;;;;;21.00;15.40;;;;;;;22.35;100.00;101182.19;2065403;28;20560;-62
2023/06/24 02:11:35;;;;;;;16.60;14.23;;;;;;;22.97;100.00;101301.69;2065090;28;20213;-62
2023/06/24 02:12:36;;;;;;;19.53;14.83;;;;;;;22.94;100.00;101297.06;2064925;28;20252;-62
2023/06/24 02:13:39;;;;;;;16.40;14.73;;;;;;;22.93;100.00;101294.72;2064990;28;20260;-62
2023/06/24 02:14:41;;;;;;;16.63;14.97;;;;;;;22.85;100.00;101285.91;2064500;28;20193;-62
2023/06/24 02:15:42;;;;;;;18.43;14.67;;;;;;;22.23;100.00;101180.56;2065523;28;20181;-62
2023/06/24 02:16:45;;;;;;;19.07;17.37;;;;;;;22.86;100.00;101283.84;2057456;28;20183;-62
2023/06/24 02:17:48;;;;;;;20.93;18.67;;;;;;;22.17;100.00;101191.81;2064478;28;20244;-62
2023/06/24 02:18:49;;;;;;;19.90;18.00;;;;;;;22.76;100.00;101280.44;2065260;28;20190;-62
2023/06/24 02:19:50;;;;;;;20.80;18.43;;;;;;;22.75;100.00;101278.09;2065160;28;20664;-63
2023/06/24 02:20:52;;;;;;;20.33;18.33;;;;;;;22.80;100.00;101271.72;2065055;28;20268;-62
2023/06/24 02:21:54;;;;;;;18.37;16.23;;;;;;;22.83;100.00;101279.97;2065369;28;20178;-62
2023/06/24 02:22:56;;;;;;;21.87;19.57;;;;;;;22.37;100.00;101207.91;2064809;28;20557;-62
2023/06/24 02:23:57;;;;;;;19.40;16.27;;;;;;;22.66;100.00;101253.63;2064791;28;20269;-62
2023/06/24 02:24:58;;;;;;;20.37;16.27;;;;;;;22.80;100.00;101272.53;2064955;28;20193;-62
2023/06/24 02:26:00;;;;;;;18.70;16.87;;;;;;;22.69;100.00;101275.25;2065300;28;20210;-62
2023/06/24 02:27:00;;;;;;;19.50;17.60;;;;;;;22.63;100.00;101274.41;2065070;28;20700;-62
2023/06/24 02:28:01;;;;;;;19.60;17.23;;;;;;;22.61;100.00;101282.63;2059068;28;20829;-62
2023/06/24 02:29:01;;;;;;;19.37;17.30;;;;;;;22.57;100.00;101287.69;2062541;28;20572;-62
2023/06/24 02:30:05;;;;;;;19.97;17.93;;;;;;;21.83;100.00;101175.78;2065286;28;20206;-62
2023/06/24 02:31:08;;;;;;;21.87;18.20;;;;;;;22.58;100.00;101302.63;2065235;28;20190;-62
2023/06/24 02:32:09;;;;;;;21.23;17.77;;;;;;;22.30;100.00;101251.47;2064882;28;20193;-62
2023/06/24 02:33:11;;;;;;;21.07;18.90;;;;;;;22.63;100.00;101304.72;2064981;28;20179;-62
2023/06/24 02:34:11;;;;;;;23.27;18.53;;;;;;;22.64;100.00;101304.22;2064640;28;20194;-62
2023/06/24 02:35:12;;;;;;;21.77;18.50;;;;;;;22.15;100.00;101221.81;2064990;28;20185;-62
2023/06/24 02:36:13;;;;;;;23.63;17.53;;;;;;;22.65;100.00;101302.94;2065102;28;20675;-62
2023/06/24 02:37:13;;;;;;;20.30;16.37;;;;;;;22.63;100.00;101299.81;2065172;28;20225;-62
2023/06/24 02:38:14;;;;;;;22.37;18.40;;;;;;;22.71;100.00;101303.78;2065140;28;20210;-62
2023/06/24 02:39:14;;;;;;;22.20;19.80;;;;;;;21.86;100.00;101169.16;2072400;28;20205;-62
2023/06/24 02:40:15;;;;;;;21.93;19.83;;;;;;;22.75;100.00;101309.97;2072403;28;20189;-62
2023/06/24 02:41:15;;;;;;;20.07;17.97;;;;;;;22.73;100.00;101312.50;2064957;28;20182;-62
2023/06/24 02:42:16;;;;;;;17.70;15.90;;;;;;;22.74;100.00;101305.59;2064791;28;20178;-62
2023/06/24 02:43:17;;;;;;;16.00;14.50;;;;;;;22.77;100.00;101315.91;2065238;28;20272;-62
2023/06/24 02:44:17;;;;;;;19.70;15.60;;;;;;;22.77;100.00;101309.47;2064829;28;20194;-62
2023/06/24 02:45:18;;;;;;;17.40;15.33;;;;;;;22.74;100.00;101305.59;2064955;28;20192;-62
2023/06/24 02:46:20;;;;;;;18.10;16.13;;;;;;;22.77;100.00;101315.91;2064824;28;20194;-64
2023/06/24 02:47:21;;;;;;;19.50;15.93;;;;;;;22.74;100.00;101311.25;2064061;28;20205;-62
2023/06/24 02:48:22;;;;;;;18.10;15.37;;;;;;;22.83;100.00;101311.06;2064637;28;20190;-62
2023/06/24 02:49:23;;;;;;;22.03;16.50;;;;;;;22.87;100.00;101311.63;2058167;28;20183;-62
2023/06/24 02:50:25;;;;;;;17.77;15.97;;;;;;;22.89;100.00;101313.94;2065170;28;20302;-62
2023/06/24 02:51:26;;;;;;;20.47;15.53;;;;;;;22.90;100.00;101312.66;2065145;28;20417;-62
2023/06/24 02:52:30;;;;;;;17.07;15.30;;;;;;;22.92;100.00;101318.63;2064985;28;21058;-62
2023/06/24 02:53:31;;;;;;;22.20;16.70;;;;;;;22.93;100.00;101323.75;2065115;28;20190;-62
2023/06/24 02:54:32;;;;;;;19.30;16.00;;;;;;;22.94;100.00;101314.00;2064413;28;20193;-62
2023/06/24 02:55:34;;;;;;;25.97;16.70;;;;;;;22.98;100.00;101310.94;2064890;28;20174;-62
2023/06/24 02:56:35;;;;;;;21.60;15.90;;;;;;;22.99;100.00;101306.84;2065123;28;20186;-62
2023/06/24 02:57:36;;;;;;;19.30;17.33;;;;;;;22.99;100.00;101324.59;2064953;28;20272;-62
2023/06/24 02:58:39;;;;;;;18.43;15.03;;;;;;;22.99;100.00;101299.16;2064864;28;20198;-63
2023/06/24 02:59:40;;;;;;;19.30;14.70;;;;;;;22.99;100.00;101301.97;2065164;28;20178;-62
2023/06/24 03:00:40;;;;;;;17.30;14.50;;;;;;;22.97;100.00;101289.63;2064721;28;20178;-63
2023/06/24 03:01:45;;;;;;;17.63;14.90;;;;;;;22.96;100.00;101291.66;2065067;28;20171;-63
2023/06/24 03:02:46;;;;;;;16.60;13.87;;;;;;;23.03;100.00;101298.91;2064464;28;20209;-62
2023/06/24 03:03:49;;;;;;;17.10;15.30;;;;;;;22.54;100.00;101220.94;2064138;28;20186;-62
2023/06/24 03:04:52;;;;;;;16.33;14.73;;;;;;;22.85;100.00;101268.19;2064879;28;20640;-62
2023/06/24 03:05:54;;;;;;;17.17;15.63;;;;;;;22.73;100.00;101258.06;2064876;28;20193;-62
2023/06/24 03:06:56;;;;;;;17.53;15.47;;;;;;;22.89;100.00;101274.38;2064320;28;20170;-62
2023/06/24 03:07:57;;;;;;;18.73;15.60;;;;;;;23.06;100.00;101300.72;2064162;28;20185;-62
2023/06/24 03:08:58;;;;;;;19.33;16.43;;;;;;;23.11;100.00;101302.81;2064710;28;20346;-62
2023/06/24 03:09:58;;;;;;;22.47;15.73;;;;;;;23.13;100.00;101301.03;2065198;28;20241;-62
2023/06/24 03:10:59;;;;;;;17.30;15.60;;;;;;;22.33;100.00;101173.47;2064873;28;20241;-62
2023/06/24 03:11:59;;;;;;;19.63;14.97;;;;;;;22.86;100.00;101253.56;2063941;28;20197;-62
2023/06/24 03:13:00;;;;;;;16.13;14.20;;;;;;;23.10;100.00;101299.22;2063945;28;20241;-62
2023/06/24 03:14:00;;;;;;;19.60;16.07;;;;;;;23.04;100.00;101289.94;2064344;28;20268;-62
2023/06/24 03:15:01;;;;;;;18.43;16.33;;;;;;;23.06;100.00;101286.59;2064688;28;20394;-62
2023/06/24 03:16:01;;;;;;;20.10;18.00;;;;;;;23.05;100.00;101288.66;2064691;28;20204;-62
2023/06/24 03:17:02;;;;;;;19.10;17.07;;;;;;;23.05;100.00;101285.81;2064508;28;20261;-62
2023/06/24 03:18:03;;;;;;;18.33;16.10;;;;;;;23.06;100.00;101295.06;2064457;28;20226;-62
2023/06/24 03:19:07;;;;;;;18.97;16.97;;;;;;;23.08;100.00;101295.34;2064964;28;20206;-62
2023/06/24 03:20:08;;;;;;;19.00;17.00;;;;;;;23.02;100.00;101298.13;2064946;28;20190;-62
2023/06/24 03:21:09;;;;;;;18.47;16.57;;;;;;;23.02;100.00;101300.97;2064617;28;20197;-62
2023/06/24 03:22:10;;;;;;;19.57;17.03;;;;;;;23.05;100.00;101308.44;2064648;28;20618;-62
2023/06/24 03:23:11;;;;;;;19.63;17.13;;;;;;;23.08;100.00;101295.34;2064536;28;20239;-62
2023/06/24 03:24:11;;;;;;;21.03;16.93;;;;;;;23.18;100.00;101302.41;2064411;28;20678;-62
2023/06/24 03:25:12;;;;;;;19.47;17.50;;;;;;;22.54;100.00;101203.19;2064715;28;20233;-62
2023/06/24 03:26:12;;;;;;;20.47;15.87;;;;;;;23.22;100.00;101306.53;2064807;28;20171;-62
2023/06/24 03:27:12;;;;;;;17.33;15.47;;;;;;;23.26;100.00;101317.59;2064648;28;20745;-62
2023/06/24 03:28:13;;;;;;;19.90;16.10;;;;;;;23.24;100.00;101294.72;2065028;28;20178;-62
2023/06/24 03:29:13;;;;;;;22.70;17.50;;;;;;;23.32;100.00;101298.63;2064728;28;20205;-62
2023/06/24 03:30:14;;;;;;;19.90;16.93;;;;;;;23.37;100.00;101300.72;2064557;28;20190;-62
2023/06/24 03:31:17;;;;;;;18.77;15.70;;;;;;;23.28;100.00;101300.94;2064522;28;20193;-62
2023/06/24 03:32:18;;;;;;;23.90;16.93;;;;;;;23.26;100.00;101303.47;2064293;28;20179;-63
2023/06/24 03:33:18;;;;;;;18.70;16.80;;;;;;;23.30;100.00;101304.03;2064755;28;20194;-62
2023/06/24 03:34:19;;;;;;;19.20;16.30;;;;;;;23.35;100.00;101306.13;2064169;28;20652;-62
2023/06/24 03:35:19;;;;;;;18.20;16.30;;;;;;;23.42;100.00;101314.13;2064534;28;20262;-62
2023/06/24 03:36:20;;;;;;;18.80;16.73;;;;;;;22.54;100.00;101174.94;2064523;28;20539;-62
2023/06/24 03:37:20;;;;;;;20.07;16.57;;;;;;;23.49;100.00;101322.16;2064759;28;20184;-62
2023/06/24 03:38:21;;;;;;;20.10;15.73;;;;;;;23.53;100.00;101322.66;2064784;28;20206;-62
2023/06/24 03:39:21;;;;;;;19.17;15.53;;;;;;;;;;2064834;28;20189;-62
2023/06/24 03:40:22;;;;;;;19.07;15.17;;;;;;;23.61;100.00;101316.06;2064691;28;20682;-62
2023/06/24 03:41:22;;;;;;;18.47;15.07;;;;;;;23.64;100.00;101309.38;2064667;28;20190;-62
2023/06/24 03:42:23;;;;;;;20.70;13.77;;;;;;;23.66;100.00;101306.81;2064411;28;20185;-62
2023/06/24 03:43:23;;;;;;;17.73;14.90;;;;;;;23.69;100.00;101307.88;2064598;28;20278;-62
2023/06/24 03:44:24;;;;;;;17.60;14.83;;;;;;;23.73;100.00;101302.72;2064080;28;20174;-62
2023/06/24 03:45:24;;;;;;;19.07;16.17;;;;;;;23.76;100.00;101301.72;2064140;28;20178;-61
2023/06/24 03:46:25;;;;;;;18.57;15.60;;;;;;;23.81;100.00;101306.63;2064375;28;20194;-63
2023/06/24 03:47:26;;;;;;;22.90;15.60;;;;;;;23.81;100.00;101307.41;2064656;28;20197;-62
2023/06/24 03:48:26;;;;;;;17.23;15.23;;;;;;;23.88;100.00;101315.41;2064564;28;20270;-62
2023/06/24 03:49:26;;;;;;;19.40;15.03;;;;;;;23.88;100.00;101303.31;2064523;28;20205;-61
2023/06/24 03:50:27;;;;;;;18.37;14.77;;;;;;;23.90;100.00;101314.94;2064403;28;20269;-62
2023/06/24 03:51:27;;;;;;;20.87;15.10;;;;;;;23.92;100.00;101304.66;2064362;28;20174;-62
2023/06/24 03:52:28;;;;;;;18.73;15.17;;;;;;;23.96;100.00;101313.66;2064243;28;20265;-62
2023/06/24 03:53:28;;;;;;;19.73;14.93;;;;;;;23.99;100.00;101326.03;2064766;28;20680;-62
2023/06/24 03:54:29;;;;;;;16.87;14.90;;;;;;;24.04;100.00;101320.41;2056537;28;20615;-62
2023/06/24 03:55:29;;;;;;;19.40;14.83;;;;;;;24.07;100.00;101310.13;2063277;28;20241;-63
2023/06/24 03:56:29;;;;;;;20.07;14.93;;;;;;;23.99;100.00;101290.00;2064771;28;20221;-62
2023/06/24 03:57:30;;;;;;;19.40;15.33;;;;;;;23.78;100.00;101256.69;2064378;28;20273;-62
2023/06/24 03:58:30;;;;;;;19.17;16.00;;;;;;;24.19;100.00;101311.69;2064021;28;20214;-62
2023/06/24 03:59:31;;;;;;;17.53;15.63;;;;;;;24.22;100.00;101307.84;2064497;28;20174;-62
2023/06/24 04:00:31;;;;;;;17.60;15.23;;;;;;;24.21;100.00;101307.06;2064729;28;20257;-62
2023/06/24 04:01:32;;;;;;;19.20;15.60;;;;;;;24.25;100.00;101304.00;2064640;28;20174;-63
2023/06/24 04:02:32;;;;;;;16.20;14.50;;;;;;;24.26;100.00;101311.22;2064089;28;20190;-62
2023/06/24 04:03:32;;;;;;;17.00;15.20;;;;;;;24.25;100.00;101312.50;2064639;28;20193;-62
2023/06/24 04:04:36;;;;;;;16.73;14.70;;;;;;;23.87;100.00;101248.78;2064023;28;20317;-62
2023/06/24 04:05:37;;;;;;;15.40;13.80;;;;;;;24.32;100.00;101312.00;2064512;28;20774;-63
2023/06/24 04:06:37;;;;;;;17.03;14.30;;;;;;;24.35;100.00;101319.47;2064604;28;20333;-62
2023/06/24 04:07:39;;;;;;;20.50;14.03;;;;;;;24.38;100.00;101321.28;2064643;28;20182;-63
2023/06/24 04:08:39;;;;;;;16.47;14.40;;;;;;;24.40;100.00;101319.50;2064457;28;20656;-62
2023/06/24 04:09:40;;;;;;;17.13;14.53;;;;;;;24.45;100.00;101321.56;2064422;28;20552;-62
2023/06/24 04:10:43;;;;;;;18.03;14.83;;;;;;;24.45;100.00;101317.94;2064570;28;20175;-62
2023/06/24 04:11:43;;;;;;;17.03;15.27;;;;;;;24.51;100.00;101324.44;2064479;28;20244;-62
2023/06/24 04:12:44;;;;;;;18.03;15.13;;;;;;;24.50;100.00;101320.81;2063757;28;20221;-62
2023/06/24 04:13:45;;;;;;;17.70;15.90;;;;;;;24.55;100.00;101322.88;2063910;28;20249;-61
2023/06/24 04:14:46;;;;;;;19.37;15.90;;;;;;;24.58;100.00;101316.22;2063702;28;20189;-62
2023/06/24 04:15:46;;;;;;;18.77;15.37;;;;;;;24.31;100.00;101285.72;2063714;28;20226;-61
2023/06/24 04:16:47;;;;;;;20.03;16.93;;;;;;;23.83;100.00;101202.16;2064576;28;20185;-62
2023/06/24 04:17:47;;;;;;;17.17;15.33;;;;;;;24.60;100.00;101316.47;2064414;28;20202;-63
2023/06/24 04:18:47;;;;;;;17.37;14.63;;;;;;;24.65;100.00;101317.75;2064480;28;20217;-62
2023/06/24 04:19:48;;;;;;;21.53;16.60;;;;;;;24.66;100.00;101322.91;2064226;28;20186;-62
2023/06/24 04:20:48;;;;;;;18.27;16.30;;;;;;;24.66;100.00;101322.91;2064732;28;20186;-62
2023/06/24 04:21:49;;;;;;;19.83;16.07;;;;;;;24.68;100.00;101320.38;2064305;28;20213;-62
2023/06/24 04:22:49;;;;;;;20.17;17.43;;;;;;;24.71;100.00;101321.41;2063922;28;20249;-62
2023/06/24 04:23:49;;;;;;;18.73;16.73;;;;;;;24.71;100.00;101312.91;2063910;28;20209;-62
2023/06/24 04:24:50;;;;;;;18.13;16.07;;;;;;;24.15;100.00;101224.16;2064445;28;20612;-63
2023/06/24 04:25:50;;;;;;;19.30;17.13;;;;;;;24.76;100.00;101324.22;2064265;28;20257;-62
2023/06/24 04:26:51;;;;;;;17.50;15.60;;;;;;;24.76;100.00;101320.59;2064220;28;20163;-62
2023/06/24 04:27:51;;;;;;;23.73;16.07;;;;;;;24.72;100.00;101315.19;2064457;28;20223;-63
2023/06/24 04:28:51;;;;;;;18.87;16.87;;;;;;;24.84;100.00;101327.31;2064287;28;20194;-62
2023/06/24 04:29:52;;;;;;;18.90;16.43;;;;;;;24.87;100.00;101327.06;2064924;28;20174;-62
2023/06/24 04:30:54;;;;;;;19.20;17.20;;;;;;;24.89;100.00;101323.72;2066137;28;20224;-62
2023/06/24 04:31:54;;;;;;;17.93;16.00;;;;;;;24.92;100.00;101319.88;2063280;28;20190;-62
2023/06/24 04:32:54;;;;;;;19.03;16.97;;;;;;;24.96;100.00;101323.97;2059354;28;20167;-62
2023/06/24 04:33:55;;;;;;;18.20;15.83;;;;;;;24.23;100.00;101205.38;2065543;28;20202;-63
2023/06/24 04:34:55;;;;;;;18.20;16.57;;;;;;;25.03;100.00;101320.63;2066117;28;20181;-62
2023/06/24 04:35:56;;;;;;;18.13;16.23;;;;;;;25.09;100.00;101318.59;2066179;28;20533;-62
2023/06/24 04:36:56;;;;;;;18.50;16.60;;;;;;;25.12;100.00;101317.53;2066222;28;20209;-62
2023/06/24 04:37:56;;;;;;;19.07;16.47;;;;;;;25.15;100.00;101327.84;2066158;28;20197;-63
2023/06/24 04:38:57;;;;;;;18.63;16.30;;;;;;;25.21;100.00;101325.00;2066036;28;20628;-62
2023/06/24 04:39:57;;;;;;;18.33;16.43;;;;;;;25.25;100.00;101322.69;2066041;28;20216;-63
2023/06/24 04:40:59;;;;;;;22.20;17.10;;;;;;;25.22;100.00;101318.03;2065369;28;20209;-63